This is the latest recevied weather packets stored in our database for station/object OK2ZI. If no packets are shown the sender has not sent any weather packets the latest 10 day(s).
| Time | Temp. | Humidity | Pressure | Rain* | Wind** | Luminosity | Snow |
|---|---|---|---|---|---|---|---|
| 1778084527 | 22.22° C | 45% | 1002 hPa | 0 mm | - | - | - |
| 1778083687 | 22.78° C | 43% | 1002 hPa | 0 mm | - | - | - |
| 1778081767 | 22.22° C | 42% | 1002 hPa | 0 mm | - | - | - |
| 1778080086 | 23.89° C | 39% | 1003 hPa | 0 mm | - | - | - |
| 1778079011 | 23.33° C | 40% | 1003 hPa | 0 mm | - | - | - |
| 1778078887 | 23.89° C | 39% | 1003 hPa | 0 mm | - | - | - |
| 1778078411 | 23.33° C | 38% | 1003 hPa | 0 mm | - | - | - |
| 1778078047 | 22.78° C | 41% | 1003 hPa | 0 mm | - | - | - |
| 1778077926 | 22.78° C | 42% | 1003 hPa | 0 mm | - | - | - |
| 1778077212 | 22.22° C | 44% | 1003 hPa | 0 mm | - | - | - |
| 1778076020 | 24.44° C | 40% | 1003 hPa | 0 mm | - | - | - |
| 1778073727 | 24.44° C | 41% | 1003 hPa | 0 mm | - | - | - |
| 1778073487 | 23.89° C | 42% | 1003 hPa | 0 mm | - | - | - |
| 1778073247 | 23.33° C | 45% | 1003 hPa | 0 mm | - | - | - |
| 1778072647 | 22.78° C | 46% | 1004 hPa | 0 mm | - | - | - |
| 1778070967 | 22.22° C | 47% | 1004 hPa | 0 mm | - | - | - |
| 1778068687 | 22.78° C | 43% | 1004 hPa | 0 mm | - | - | - |
| 1778068567 | 22.78° C | 43% | 1004 hPa | 0 mm | - | - | - |
| 1778068447 | 22.78° C | 42% | 1004 hPa | 0 mm | - | - | - |
| 1778068087 | 22.78° C | 43% | 1005 hPa | 0 mm | - | - | - |
| 1778067487 | 23.33° C | 39% | 1004 hPa | 0 mm | - | - | - |
| 1778066412 | 21.67° C | 44% | 1005 hPa | 0 mm | - | - | - |
| 1778062812 | 22.78° C | 44% | 1005 hPa | 0 mm | - | - | - |
| 1778062449 | 22.22° C | 46% | 1005 hPa | 0 mm | - | - | - |
| 1778061127 | 22.22° C | 47% | 1005 hPa | 0 mm | - | - | - |
* Rain latest hour (hover to see other rain measurements)
** Current wind speed in m/s (hover to see current wind gust speed)